sensor_id;sensor_type;location;lat;lon;timestamp;temperature;humidity
65064;DHT22;51654;51.452;6.644;2022-08-02T00:00:50;15.70;63.90
65064;DHT22;51654;51.452;6.644;2022-08-02T00:03:21;15.70;64.00
65064;DHT22;51654;51.452;6.644;2022-08-02T00:05:50;15.60;63.90
65064;DHT22;51654;51.452;6.644;2022-08-02T00:08:18;15.60;64.10
65064;DHT22;51654;51.452;6.644;2022-08-02T00:10:45;15.60;64.40
65064;DHT22;51654;51.452;6.644;2022-08-02T00:13:12;15.50;64.40
65064;DHT22;51654;51.452;6.644;2022-08-02T00:15:39;15.40;64.60
65064;DHT22;51654;51.452;6.644;2022-08-02T00:18:05;15.40;64.70
65064;DHT22;51654;51.452;6.644;2022-08-02T00:20:32;15.30;64.80
65064;DHT22;51654;51.452;6.644;2022-08-02T00:22:59;15.30;65.10
65064;DHT22;51654;51.452;6.644;2022-08-02T00:25:26;15.30;65.10
65064;DHT22;51654;51.452;6.644;2022-08-02T00:27:53;15.20;65.20
65064;DHT22;51654;51.452;6.644;2022-08-02T00:30:19;15.20;65.50
65064;DHT22;51654;51.452;6.644;2022-08-02T00:32:46;15.20;65.70
65064;DHT22;51654;51.452;6.644;2022-08-02T00:35:13;15.20;65.60
65064;DHT22;51654;51.452;6.644;2022-08-02T00:37:40;15.20;65.60
65064;DHT22;51654;51.452;6.644;2022-08-02T00:40:08;15.30;65.80
65064;DHT22;51654;51.452;6.644;2022-08-02T00:42:35;15.30;65.70
65064;DHT22;51654;51.452;6.644;2022-08-02T00:45:01;15.30;65.70
65064;DHT22;51654;51.452;6.644;2022-08-02T00:47:28;15.30;65.80
65064;DHT22;51654;51.452;6.644;2022-08-02T00:49:55;15.30;65.90
65064;DHT22;51654;51.452;6.644;2022-08-02T00:55:11;15.40;66.10
65064;DHT22;51654;51.452;6.644;2022-08-02T00:57:42;15.50;66.00
65064;DHT22;51654;51.452;6.644;2022-08-02T01:00:10;15.50;65.90
65064;DHT22;51654;51.452;6.644;2022-08-02T01:02:38;15.50;65.90
65064;DHT22;51654;51.452;6.644;2022-08-02T01:05:04;15.50;65.90
65064;DHT22;51654;51.452;6.644;2022-08-02T01:07:31;15.40;66.00
65064;DHT22;51654;51.452;6.644;2022-08-02T01:09:58;15.40;66.20
65064;DHT22;51654;51.452;6.644;2022-08-02T01:12:26;15.30;66.50
65064;DHT22;51654;51.452;6.644;2022-08-02T01:14:54;15.20;66.70
65064;DHT22;51654;51.452;6.644;2022-08-02T01:25:52;15.10;67.10
65064;DHT22;51654;51.452;6.644;2022-08-02T01:30:49;15.00;67.50
65064;DHT22;51654;51.452;6.644;2022-08-02T01:33:22;15.10;67.70
65064;DHT22;51654;51.452;6.644;2022-08-02T01:35:51;15.10;67.50
65064;DHT22;51654;51.452;6.644;2022-08-02T01:38:42;15.00;67.60
65064;DHT22;51654;51.452;6.644;2022-08-02T01:41:08;15.00;67.60
65064;DHT22;51654;51.452;6.644;2022-08-02T01:43:35;15.00;67.70
65064;DHT22;51654;51.452;6.644;2022-08-02T01:46:03;14.90;67.90
65064;DHT22;51654;51.452;6.644;2022-08-02T01:48:30;14.90;67.90
65064;DHT22;51654;51.452;6.644;2022-08-02T01:50:59;14.90;68.10
65064;DHT22;51654;51.452;6.644;2022-08-02T01:53:27;14.80;68.40
65064;DHT22;51654;51.452;6.644;2022-08-02T01:55:54;14.90;68.60
65064;DHT22;51654;51.452;6.644;2022-08-02T01:58:28;15.00;68.60
65064;DHT22;51654;51.452;6.644;2022-08-02T02:00:56;15.00;68.50
65064;DHT22;51654;51.452;6.644;2022-08-02T02:03:24;14.90;68.50
65064;DHT22;51654;51.452;6.644;2022-08-02T02:05:53;14.90;68.70
65064;DHT22;51654;51.452;6.644;2022-08-02T02:08:25;14.80;69.00
65064;DHT22;51654;51.452;6.644;2022-08-02T02:10:53;14.70;69.10
65064;DHT22;51654;51.452;6.644;2022-08-02T02:13:21;14.70;69.10
65064;DHT22;51654;51.452;6.644;2022-08-02T02:16:00;14.70;69.20
65064;DHT22;51654;51.452;6.644;2022-08-02T02:18:29;14.60;69.20
65064;DHT22;51654;51.452;6.644;2022-08-02T02:20:56;14.50;69.30
65064;DHT22;51654;51.452;6.644;2022-08-02T02:23:23;14.50;69.60
65064;DHT22;51654;51.452;6.644;2022-08-02T02:25:52;14.50;69.70
65064;DHT22;51654;51.452;6.644;2022-08-02T02:28:22;14.50;69.90
65064;DHT22;51654;51.452;6.644;2022-08-02T02:30:57;14.40;70.10
65064;DHT22;51654;51.452;6.644;2022-08-02T02:33:25;14.40;70.00
65064;DHT22;51654;51.452;6.644;2022-08-02T02:35:55;14.40;69.90
65064;DHT22;51654;51.452;6.644;2022-08-02T07:22:11;21.50;57.10
65064;DHT22;51654;51.452;6.644;2022-08-02T07:24:38;21.80;56.20
65064;DHT22;51654;51.452;6.644;2022-08-02T07:27:06;22.10;55.30
65064;DHT22;51654;51.452;6.644;2022-08-02T07:29:38;22.40;54.50
65064;DHT22;51654;51.452;6.644;2022-08-02T07:32:20;22.70;53.70
65064;DHT22;51654;51.452;6.644;2022-08-02T07:34:47;23.00;52.60
65064;DHT22;51654;51.452;6.644;2022-08-02T07:37:19;22.80;52.30
65064;DHT22;51654;51.452;6.644;2022-08-02T07:40:07;22.80;52.10
65064;DHT22;51654;51.452;6.644;2022-08-02T07:42:41;23.10;52.30
65064;DHT22;51654;51.452;6.644;2022-08-02T07:45:08;23.40;50.90
65064;DHT22;51654;51.452;6.644;2022-08-02T07:47:36;23.60;50.80
65064;DHT22;51654;51.452;6.644;2022-08-02T07:50:04;23.90;50.30
65064;DHT22;51654;51.452;6.644;2022-08-02T07:52:31;24.20;49.20
65064;DHT22;51654;51.452;6.644;2022-08-02T07:54:58;24.40;48.70
65064;DHT22;51654;51.452;6.644;2022-08-02T07:57:25;24.50;47.90
65064;DHT22;51654;51.452;6.644;2022-08-02T07:59:51;24.60;47.70
65064;DHT22;51654;51.452;6.644;2022-08-02T08:02:18;24.70;47.00
65064;DHT22;51654;51.452;6.644;2022-08-02T08:04:45;24.60;46.40
65064;DHT22;51654;51.452;6.644;2022-08-02T08:07:12;24.30;46.20
65064;DHT22;51654;51.452;6.644;2022-08-02T08:09:39;24.10;46.40
65064;DHT22;51654;51.452;6.644;2022-08-02T08:12:08;24.00;46.80
65064;DHT22;51654;51.452;6.644;2022-08-02T08:14:36;24.10;47.00
65064;DHT22;51654;51.452;6.644;2022-08-02T08:17:03;24.50;46.90
65064;DHT22;51654;51.452;6.644;2022-08-02T08:19:30;24.90;46.40
65064;DHT22;51654;51.452;6.644;2022-08-02T08:22:17;25.50;45.80
65064;DHT22;51654;51.452;6.644;2022-08-02T08:24:44;25.90;43.70
65064;DHT22;51654;51.452;6.644;2022-08-02T08:27:11;25.90;43.90
65064;DHT22;51654;51.452;6.644;2022-08-02T08:29:43;26.10;43.70
65064;DHT22;51654;51.452;6.644;2022-08-02T08:32:11;26.50;43.00
65064;DHT22;51654;51.452;6.644;2022-08-02T08:34:44;26.70;42.40
65064;DHT22;51654;51.452;6.644;2022-08-02T08:37:11;26.90;41.80
65064;DHT22;51654;51.452;6.644;2022-08-02T08:39:47;26.90;42.20
65064;DHT22;51654;51.452;6.644;2022-08-02T08:42:25;27.20;41.10
65064;DHT22;51654;51.452;6.644;2022-08-02T08:44:54;27.40;40.70
65064;DHT22;51654;51.452;6.644;2022-08-02T08:47:35;27.60;40.60
65064;DHT22;51654;51.452;6.644;2022-08-02T08:50:06;27.80;39.70
65064;DHT22;51654;51.452;6.644;2022-08-02T08:52:41;27.40;40.10
65064;DHT22;51654;51.452;6.644;2022-08-02T08:55:09;27.10;40.70
65064;DHT22;51654;51.452;6.644;2022-08-02T08:57:41;27.10;40.90
65064;DHT22;51654;51.452;6.644;2022-08-02T09:00:09;27.10;40.80
65064;DHT22;51654;51.452;6.644;2022-08-02T09:02:36;27.10;40.70
65064;DHT22;51654;51.452;6.644;2022-08-02T09:05:03;27.00;40.90
65064;DHT22;51654;51.452;6.644;2022-08-02T09:07:30;27.00;41.20
65064;DHT22;51654;51.452;6.644;2022-08-02T09:09:58;27.10;41.40
65064;DHT22;51654;51.452;6.644;2022-08-02T09:12:25;27.50;41.20
65064;DHT22;51654;51.452;6.644;2022-08-02T09:14:52;28.00;40.10
65064;DHT22;51654;51.452;6.644;2022-08-02T09:17:19;28.20;39.60
65064;DHT22;51654;51.452;6.644;2022-08-02T09:20:05;28.20;39.40
65064;DHT22;51654;51.452;6.644;2022-08-02T09:22:32;28.40;39.40
65064;DHT22;51654;51.452;6.644;2022-08-02T09:24:59;28.50;38.90
65064;DHT22;51654;51.452;6.644;2022-08-02T09:27:26;28.20;39.10
65064;DHT22;51654;51.452;6.644;2022-08-02T09:30:01;28.10;39.50
65064;DHT22;51654;51.452;6.644;2022-08-02T09:32:46;28.10;39.60
65064;DHT22;51654;51.452;6.644;2022-08-02T09:35:30;28.20;39.50
65064;DHT22;51654;51.452;6.644;2022-08-02T09:38:17;28.50;39.30
65064;DHT22;51654;51.452;6.644;2022-08-02T09:40:44;28.80;38.80
65064;DHT22;51654;51.452;6.644;2022-08-02T09:43:11;28.90;38.40
65064;DHT22;51654;51.452;6.644;2022-08-02T09:45:38;28.80;38.10
65064;DHT22;51654;51.452;6.644;2022-08-02T09:48:08;28.80;37.90
65064;DHT22;51654;51.452;6.644;2022-08-02T09:50:35;28.90;37.90
65064;DHT22;51654;51.452;6.644;2022-08-02T09:53:02;28.70;37.90
65064;DHT22;51654;51.452;6.644;2022-08-02T09:55:29;28.70;38.20
65064;DHT22;51654;51.452;6.644;2022-08-02T09:57:56;28.70;38.00
65064;DHT22;51654;51.452;6.644;2022-08-02T10:00:23;28.70;38.30
65064;DHT22;51654;51.452;6.644;2022-08-02T10:03:10;28.70;38.20
65064;DHT22;51654;51.452;6.644;2022-08-02T10:05:51;28.50;38.60
65064;DHT22;51654;51.452;6.644;2022-08-02T10:08:28;28.10;38.80
65064;DHT22;51654;51.452;6.644;2022-08-02T10:10:58;27.90;39.50
65064;DHT22;51654;51.452;6.644;2022-08-02T10:13:28;28.00;39.70
65064;DHT22;51654;51.452;6.644;2022-08-02T10:15:56;28.10;39.60
65064;DHT22;51654;51.452;6.644;2022-08-02T10:18:23;28.40;39.30
65064;DHT22;51654;51.452;6.644;2022-08-02T10:21:06;28.60;38.90
65064;DHT22;51654;51.452;6.644;2022-08-02T10:23:33;28.80;38.40
65064;DHT22;51654;51.452;6.644;2022-08-02T10:26:02;28.90;38.40
65064;DHT22;51654;51.452;6.644;2022-08-02T10:28:30;29.10;37.60
65064;DHT22;51654;51.452;6.644;2022-08-02T10:30:58;29.10;37.70
65064;DHT22;51654;51.452;6.644;2022-08-02T10:33:26;29.00;37.40
65064;DHT22;51654;51.452;6.644;2022-08-02T10:35:54;29.00;37.40
65064;DHT22;51654;51.452;6.644;2022-08-02T10:38:32;28.90;37.40
65064;DHT22;51654;51.452;6.644;2022-08-02T10:40:59;28.80;37.00
65064;DHT22;51654;51.452;6.644;2022-08-02T10:49:00;27.90;38.70
65064;DHT22;51654;51.452;6.644;2022-08-02T10:54:27;28.10;38.20
65064;DHT22;51654;51.452;6.644;2022-08-02T10:56:54;28.00;37.90
65064;DHT22;51654;51.452;6.644;2022-08-02T11:01:54;28.20;37.60
65064;DHT22;51654;51.452;6.644;2022-08-02T11:09:36;27.60;38.60
65064;DHT22;51654;51.452;6.644;2022-08-02T11:14:30;27.50;38.00
65064;DHT22;51654;51.452;6.644;2022-08-02T11:19:25;27.80;37.70
65064;DHT22;51654;51.452;6.644;2022-08-02T11:21:58;27.80;36.90
65064;DHT22;51654;51.452;6.644;2022-08-02T11:24:27;27.60;37.00
65064;DHT22;51654;51.452;6.644;2022-08-02T11:26:55;27.60;37.50
65064;DHT22;51654;51.452;6.644;2022-08-02T11:29:32;27.50;37.70
65064;DHT22;51654;51.452;6.644;2022-08-02T11:32:04;27.50;37.70
65064;DHT22;51654;51.452;6.644;2022-08-02T11:34:31;27.50;38.10
65064;DHT22;51654;51.452;6.644;2022-08-02T11:37:03;27.70;37.60
65064;DHT22;51654;51.452;6.644;2022-08-02T11:39:30;27.80;37.00
65064;DHT22;51654;51.452;6.644;2022-08-02T11:41:57;28.00;36.90
65064;DHT22;51654;51.452;6.644;2022-08-02T11:44:25;28.30;35.70
65064;DHT22;51654;51.452;6.644;2022-08-02T11:46:59;28.40;35.80
65064;DHT22;51654;51.452;6.644;2022-08-02T11:49:27;28.40;35.60
65064;DHT22;51654;51.452;6.644;2022-08-02T11:54:22;28.50;35.90
65064;DHT22;51654;51.452;6.644;2022-08-02T11:56:49;28.50;36.60
65064;DHT22;51654;51.452;6.644;2022-08-02T11:59:16;28.50;36.90
65064;DHT22;51654;51.452;6.644;2022-08-02T12:01:42;28.50;36.70
65064;DHT22;51654;51.452;6.644;2022-08-02T12:04:14;28.30;36.70
65064;DHT22;51654;51.452;6.644;2022-08-02T12:06:41;28.20;36.90
65064;DHT22;51654;51.452;6.644;2022-08-02T12:09:10;28.10;36.60
65064;DHT22;51654;51.452;6.644;2022-08-02T12:11:47;28.10;36.40
65064;DHT22;51654;51.452;6.644;2022-08-02T12:14:13;28.20;36.40
65064;DHT22;51654;51.452;6.644;2022-08-02T12:16:40;28.10;36.50
65064;DHT22;51654;51.452;6.644;2022-08-02T12:19:26;28.00;37.20
65064;DHT22;51654;51.452;6.644;2022-08-02T12:22:10;28.10;37.10
65064;DHT22;51654;51.452;6.644;2022-08-02T12:24:38;28.20;37.00
65064;DHT22;51654;51.452;6.644;2022-08-02T12:27:05;28.30;37.10
65064;DHT22;51654;51.452;6.644;2022-08-02T12:29:36;28.50;36.90
65064;DHT22;51654;51.452;6.644;2022-08-02T12:32:24;28.60;36.70
65064;DHT22;51654;51.452;6.644;2022-08-02T12:35:20;28.70;36.80
65064;DHT22;51654;51.452;6.644;2022-08-02T12:37:52;28.80;36.80
65064;DHT22;51654;51.452;6.644;2022-08-02T12:40:30;28.80;36.40
65064;DHT22;51654;51.452;6.644;2022-08-02T12:42:58;28.80;36.40
65064;DHT22;51654;51.452;6.644;2022-08-02T12:45:28;28.70;36.60
65064;DHT22;51654;51.452;6.644;2022-08-02T12:48:07;28.60;36.80
65064;DHT22;51654;51.452;6.644;2022-08-02T12:50:35;28.70;36.80
65064;DHT22;51654;51.452;6.644;2022-08-02T12:53:10;28.70;36.00
65064;DHT22;51654;51.452;6.644;2022-08-02T12:55:49;28.60;36.30
65064;DHT22;51654;51.452;6.644;2022-08-02T12:58:28;28.50;36.70
65064;DHT22;51654;51.452;6.644;2022-08-02T13:00:57;28.50;36.10
65064;DHT22;51654;51.452;6.644;2022-08-02T13:03:25;28.50;35.70
65064;DHT22;51654;51.452;6.644;2022-08-02T13:06:11;28.20;35.80
65064;DHT22;51654;51.452;6.644;2022-08-02T13:08:59;28.00;36.10
65064;DHT22;51654;51.452;6.644;2022-08-02T13:11:27;27.70;36.20
65064;DHT22;51654;51.452;6.644;2022-08-02T13:13:54;27.70;36.70
65064;DHT22;51654;51.452;6.644;2022-08-02T13:16:21;27.80;37.00
65064;DHT22;51654;51.452;6.644;2022-08-02T13:18:57;27.80;37.00
65064;DHT22;51654;51.452;6.644;2022-08-02T13:21:24;27.90;36.90
65064;DHT22;51654;51.452;6.644;2022-08-02T13:24:12;28.00;37.10
65064;DHT22;51654;51.452;6.644;2022-08-02T13:27:01;28.20;37.10
65064;DHT22;51654;51.452;6.644;2022-08-02T13:29:35;28.40;36.90
65064;DHT22;51654;51.452;6.644;2022-08-02T13:32:02;28.50;36.70
65064;DHT22;51654;51.452;6.644;2022-08-02T13:34:28;28.40;35.40
65064;DHT22;51654;51.452;6.644;2022-08-02T13:36:55;28.20;35.20
65064;DHT22;51654;51.452;6.644;2022-08-02T13:39:22;28.10;35.70
65064;DHT22;51654;51.452;6.644;2022-08-02T13:41:49;28.10;35.90
65064;DHT22;51654;51.452;6.644;2022-08-02T13:44:16;28.10;36.00
65064;DHT22;51654;51.452;6.644;2022-08-02T13:46:43;28.00;36.00
65064;DHT22;51654;51.452;6.644;2022-08-02T13:49:15;27.80;36.30
65064;DHT22;51654;51.452;6.644;2022-08-02T13:51:48;27.70;36.30
65064;DHT22;51654;51.452;6.644;2022-08-02T13:54:15;27.60;36.40
65064;DHT22;51654;51.452;6.644;2022-08-02T13:56:43;27.70;36.60
65064;DHT22;51654;51.452;6.644;2022-08-02T13:59:10;27.70;36.40
65064;DHT22;51654;51.452;6.644;2022-08-02T14:01:58;27.70;36.50
65064;DHT22;51654;51.452;6.644;2022-08-02T14:04:26;27.70;36.50
65064;DHT22;51654;51.452;6.644;2022-08-02T14:06:53;27.50;36.70
65064;DHT22;51654;51.452;6.644;2022-08-02T14:09:25;27.50;36.80
65064;DHT22;51654;51.452;6.644;2022-08-02T14:11:52;27.40;37.10
65064;DHT22;51654;51.452;6.644;2022-08-02T14:14:19;27.50;37.20
65064;DHT22;51654;51.452;6.644;2022-08-02T14:16:46;27.70;36.60
65064;DHT22;51654;51.452;6.644;2022-08-02T14:19:13;27.90;35.90
65064;DHT22;51654;51.452;6.644;2022-08-02T14:21:43;27.90;35.70
65064;DHT22;51654;51.452;6.644;2022-08-02T14:24:18;27.90;36.20
65064;DHT22;51654;51.452;6.644;2022-08-02T14:26:46;27.90;35.80
65064;DHT22;51654;51.452;6.644;2022-08-02T14:29:14;27.90;35.80
65064;DHT22;51654;51.452;6.644;2022-08-02T14:31:41;27.80;35.80
65064;DHT22;51654;51.452;6.644;2022-08-02T14:34:13;27.50;36.10
65064;DHT22;51654;51.452;6.644;2022-08-02T14:36:48;27.50;36.70
65064;DHT22;51654;51.452;6.644;2022-08-02T14:39:20;27.70;36.90
65064;DHT22;51654;51.452;6.644;2022-08-02T14:41:52;27.90;36.00
65064;DHT22;51654;51.452;6.644;2022-08-02T14:44:27;27.80;35.60
65064;DHT22;51654;51.452;6.644;2022-08-02T14:46:59;27.80;35.80
65064;DHT22;51654;51.452;6.644;2022-08-02T14:49:29;27.70;36.10
65064;DHT22;51654;51.452;6.644;2022-08-02T14:51:57;27.70;36.30
65064;DHT22;51654;51.452;6.644;2022-08-02T14:54:28;27.70;35.50
65064;DHT22;51654;51.452;6.644;2022-08-02T14:57:05;27.70;35.80
65064;DHT22;51654;51.452;6.644;2022-08-02T14:59:35;27.70;35.70
65064;DHT22;51654;51.452;6.644;2022-08-02T15:02:12;27.60;35.70
65064;DHT22;51654;51.452;6.644;2022-08-02T15:04:53;27.60;35.70
65064;DHT22;51654;51.452;6.644;2022-08-02T15:07:20;27.60;35.50
65064;DHT22;51654;51.452;6.644;2022-08-02T15:09:47;27.70;35.50
65064;DHT22;51654;51.452;6.644;2022-08-02T15:12:15;27.80;35.40
65064;DHT22;51654;51.452;6.644;2022-08-02T15:14:42;27.80;35.10
65064;DHT22;51654;51.452;6.644;2022-08-02T15:17:10;27.90;34.70
65064;DHT22;51654;51.452;6.644;2022-08-02T15:19:37;28.00;34.80
65064;DHT22;51654;51.452;6.644;2022-08-02T15:22:24;28.10;34.60
65064;DHT22;51654;51.452;6.644;2022-08-02T15:24:52;28.20;34.80
65064;DHT22;51654;51.452;6.644;2022-08-02T15:27:18;28.40;34.80
65064;DHT22;51654;51.452;6.644;2022-08-02T15:29:46;28.40;34.40
65064;DHT22;51654;51.452;6.644;2022-08-02T15:32:15;28.40;34.40
65064;DHT22;51654;51.452;6.644;2022-08-02T15:34:46;28.30;34.30
65064;DHT22;51654;51.452;6.644;2022-08-02T15:37:12;28.20;34.40
65064;DHT22;51654;51.452;6.644;2022-08-02T15:39:39;28.10;34.70
65064;DHT22;51654;51.452;6.644;2022-08-02T15:42:06;28.20;34.80
65064;DHT22;51654;51.452;6.644;2022-08-02T15:44:33;28.10;34.80
65064;DHT22;51654;51.452;6.644;2022-08-02T15:47:00;28.10;34.60
65064;DHT22;51654;51.452;6.644;2022-08-02T15:49:27;28.00;34.90
65064;DHT22;51654;51.452;6.644;2022-08-02T15:51:54;28.00;34.80
65064;DHT22;51654;51.452;6.644;2022-08-02T15:54:21;28.00;34.80
65064;DHT22;51654;51.452;6.644;2022-08-02T15:56:48;28.00;34.70
65064;DHT22;51654;51.452;6.644;2022-08-02T15:59:16;28.00;34.50
65064;DHT22;51654;51.452;6.644;2022-08-02T16:01:43;28.00;34.80
65064;DHT22;51654;51.452;6.644;2022-08-02T16:04:14;28.00;35.00
65064;DHT22;51654;51.452;6.644;2022-08-02T16:06:42;28.00;35.30
65064;DHT22;51654;51.452;6.644;2022-08-02T16:09:09;28.00;35.00
65064;DHT22;51654;51.452;6.644;2022-08-02T16:11:36;28.00;34.80
65064;DHT22;51654;51.452;6.644;2022-08-02T16:14:03;27.90;34.50
65064;DHT22;51654;51.452;6.644;2022-08-02T16:16:32;27.90;34.70
65064;DHT22;51654;51.452;6.644;2022-08-02T16:19:00;27.70;34.70
65064;DHT22;51654;51.452;6.644;2022-08-02T16:21:47;27.70;35.20
65064;DHT22;51654;51.452;6.644;2022-08-02T16:24:16;27.70;35.10
65064;DHT22;51654;51.452;6.644;2022-08-02T16:26:43;27.60;35.10
65064;DHT22;51654;51.452;6.644;2022-08-02T16:29:10;27.50;35.50
65064;DHT22;51654;51.452;6.644;2022-08-02T16:31:37;27.50;35.60
65064;DHT22;51654;51.452;6.644;2022-08-02T16:34:08;27.50;35.40
65064;DHT22;51654;51.452;6.644;2022-08-02T16:36:35;27.40;35.50
65064;DHT22;51654;51.452;6.644;2022-08-02T16:39:03;27.40;36.10
65064;DHT22;51654;51.452;6.644;2022-08-02T16:41:31;27.40;36.10
65064;DHT22;51654;51.452;6.644;2022-08-02T16:44:25;27.40;35.80
65064;DHT22;51654;51.452;6.644;2022-08-02T16:46:57;27.40;35.80
65064;DHT22;51654;51.452;6.644;2022-08-02T16:49:28;27.30;35.80
65064;DHT22;51654;51.452;6.644;2022-08-02T16:52:16;27.30;36.20
65064;DHT22;51654;51.452;6.644;2022-08-02T16:54:45;27.30;36.00
65064;DHT22;51654;51.452;6.644;2022-08-02T16:57:19;27.30;35.90
65064;DHT22;51654;51.452;6.644;2022-08-02T16:59:47;27.20;35.80
65064;DHT22;51654;51.452;6.644;2022-08-02T17:02:23;27.20;36.00
65064;DHT22;51654;51.452;6.644;2022-08-02T17:04:51;27.10;36.10
65064;DHT22;51654;51.452;6.644;2022-08-02T17:07:18;27.10;36.20
65064;DHT22;51654;51.452;6.644;2022-08-02T17:10:05;27.10;36.00
65064;DHT22;51654;51.452;6.644;2022-08-02T17:12:36;27.10;36.30
65064;DHT22;51654;51.452;6.644;2022-08-02T17:15:04;27.10;36.50
65064;DHT22;51654;51.452;6.644;2022-08-02T17:17:52;27.10;36.30
65064;DHT22;51654;51.452;6.644;2022-08-02T17:20:19;27.10;36.20
65064;DHT22;51654;51.452;6.644;2022-08-02T17:22:46;27.00;36.30
65064;DHT22;51654;51.452;6.644;2022-08-02T17:25:15;27.00;36.50
65064;DHT22;51654;51.452;6.644;2022-08-02T17:27:43;27.00;36.80
65064;DHT22;51654;51.452;6.644;2022-08-02T17:30:11;27.00;36.60
65064;DHT22;51654;51.452;6.644;2022-08-02T17:32:39;27.00;36.70
65064;DHT22;51654;51.452;6.644;2022-08-02T17:35:11;26.90;36.60
65064;DHT22;51654;51.452;6.644;2022-08-02T17:37:42;26.90;36.70
65064;DHT22;51654;51.452;6.644;2022-08-02T17:40:20;26.80;36.90
65064;DHT22;51654;51.452;6.644;2022-08-02T17:42:49;26.80;37.50
65064;DHT22;51654;51.452;6.644;2022-08-02T17:45:16;26.80;37.60
65064;DHT22;51654;51.452;6.644;2022-08-02T17:47:51;26.80;37.90
65064;DHT22;51654;51.452;6.644;2022-08-02T17:50:31;26.80;37.80
65064;DHT22;51654;51.452;6.644;2022-08-02T17:52:58;26.80;37.80
65064;DHT22;51654;51.452;6.644;2022-08-02T17:55:26;26.80;37.90
65064;DHT22;51654;51.452;6.644;2022-08-02T17:57:56;26.70;37.80
65064;DHT22;51654;51.452;6.644;2022-08-02T18:00:34;26.70;38.00
65064;DHT22;51654;51.452;6.644;2022-08-02T18:03:02;26.70;38.00
65064;DHT22;51654;51.452;6.644;2022-08-02T18:05:31;26.60;37.80
65064;DHT22;51654;51.452;6.644;2022-08-02T18:08:17;26.50;37.80
65064;DHT22;51654;51.452;6.644;2022-08-02T18:10:48;26.50;38.10
65064;DHT22;51654;51.452;6.644;2022-08-02T18:13:15;26.40;38.40
65064;DHT22;51654;51.452;6.644;2022-08-02T18:15:42;26.40;38.30
65064;DHT22;51654;51.452;6.644;2022-08-02T18:18:12;26.30;38.70
65064;DHT22;51654;51.452;6.644;2022-08-02T18:20:40;26.30;39.00
65064;DHT22;51654;51.452;6.644;2022-08-02T18:23:07;26.20;39.30
65064;DHT22;51654;51.452;6.644;2022-08-02T18:25:39;26.20;39.70
65064;DHT22;51654;51.452;6.644;2022-08-02T18:28:13;26.20;39.90
65064;DHT22;51654;51.452;6.644;2022-08-02T18:30:40;26.20;39.80
65064;DHT22;51654;51.452;6.644;2022-08-02T18:33:07;26.10;39.80
65064;DHT22;51654;51.452;6.644;2022-08-02T18:35:54;26.10;40.00
65064;DHT22;51654;51.452;6.644;2022-08-02T18:38:24;26.00;40.30
65064;DHT22;51654;51.452;6.644;2022-08-02T18:40:53;26.00;40.60
65064;DHT22;51654;51.452;6.644;2022-08-02T18:43:20;26.00;40.80
65064;DHT22;51654;51.452;6.644;2022-08-02T18:45:51;25.90;41.10
65064;DHT22;51654;51.452;6.644;2022-08-02T18:48:38;25.90;40.80
65064;DHT22;51654;51.452;6.644;2022-08-02T18:51:13;25.80;41.00
65064;DHT22;51654;51.452;6.644;2022-08-02T18:53:40;25.70;41.20
65064;DHT22;51654;51.452;6.644;2022-08-02T18:56:09;25.70;41.30
65064;DHT22;51654;51.452;6.644;2022-08-02T18:58:46;25.60;41.60
65064;DHT22;51654;51.452;6.644;2022-08-02T19:01:13;25.50;41.70
65064;DHT22;51654;51.452;6.644;2022-08-02T19:04:00;25.50;42.10
65064;DHT22;51654;51.452;6.644;2022-08-02T19:06:28;25.40;42.80
65064;DHT22;51654;51.452;6.644;2022-08-02T19:08:55;25.40;43.20
65064;DHT22;51654;51.452;6.644;2022-08-02T19:11:41;25.40;44.00
65064;DHT22;51654;51.452;6.644;2022-08-02T19:14:16;25.40;44.70
65064;DHT22;51654;51.452;6.644;2022-08-02T19:16:56;25.30;45.00
65064;DHT22;51654;51.452;6.644;2022-08-02T19:19:25;25.30;44.50
65064;DHT22;51654;51.452;6.644;2022-08-02T19:21:55;25.20;44.40
65064;DHT22;51654;51.452;6.644;2022-08-02T19:24:43;25.20;44.60
65064;DHT22;51654;51.452;6.644;2022-08-02T19:27:14;25.10;44.40
65064;DHT22;51654;51.452;6.644;2022-08-02T19:30:02;25.10;44.50
65064;DHT22;51654;51.452;6.644;2022-08-02T19:32:33;25.00;44.80
65064;DHT22;51654;51.452;6.644;2022-08-02T19:35:20;25.00;44.90
65064;DHT22;51654;51.452;6.644;2022-08-02T19:38:06;24.90;45.20
65064;DHT22;51654;51.452;6.644;2022-08-02T19:40:34;24.80;46.40
65064;DHT22;51654;51.452;6.644;2022-08-02T19:43:01;24.70;46.40
65064;DHT22;51654;51.452;6.644;2022-08-02T19:45:48;24.70;45.80
65064;DHT22;51654;51.452;6.644;2022-08-02T19:48:17;24.60;46.20
65064;DHT22;51654;51.452;6.644;2022-08-02T19:50:51;24.50;46.50
65064;DHT22;51654;51.452;6.644;2022-08-02T19:53:22;24.50;46.70
65064;DHT22;51654;51.452;6.644;2022-08-02T19:55:54;24.50;46.50
65064;DHT22;51654;51.452;6.644;2022-08-02T19:58:29;24.40;47.10
65064;DHT22;51654;51.452;6.644;2022-08-02T20:00:58;24.30;46.70
65064;DHT22;51654;51.452;6.644;2022-08-02T20:03:24;24.20;46.80
65064;DHT22;51654;51.452;6.644;2022-08-02T20:06:11;24.20;47.40
65064;DHT22;51654;51.452;6.644;2022-08-02T20:08:39;24.10;47.70
65064;DHT22;51654;51.452;6.644;2022-08-02T20:11:21;24.10;48.40
65064;DHT22;51654;51.452;6.644;2022-08-02T20:13:50;24.10;48.40
65064;DHT22;51654;51.452;6.644;2022-08-02T20:16:18;24.00;48.10
65064;DHT22;51654;51.452;6.644;2022-08-02T20:19:05;24.00;47.80
65064;DHT22;51654;51.452;6.644;2022-08-02T20:21:34;23.90;47.60
65064;DHT22;51654;51.452;6.644;2022-08-02T20:24:09;23.80;47.70
65064;DHT22;51654;51.452;6.644;2022-08-02T20:26:36;23.70;48.10
65064;DHT22;51654;51.452;6.644;2022-08-02T20:29:14;23.70;48.30
65064;DHT22;51654;51.452;6.644;2022-08-02T20:32:01;23.70;49.00
65064;DHT22;51654;51.452;6.644;2022-08-02T20:34:28;23.60;49.10
65064;DHT22;51654;51.452;6.644;2022-08-02T20:36:55;23.60;48.90
65064;DHT22;51654;51.452;6.644;2022-08-02T20:39:22;23.50;49.00
65064;DHT22;51654;51.452;6.644;2022-08-02T20:42:08;23.50;49.20
65064;DHT22;51654;51.452;6.644;2022-08-02T20:44:48;23.50;48.90
65064;DHT22;51654;51.452;6.644;2022-08-02T20:47:15;23.40;48.80
65064;DHT22;51654;51.452;6.644;2022-08-02T20:49:53;23.40;48.90
65064;DHT22;51654;51.452;6.644;2022-08-02T20:52:41;23.30;49.00
65064;DHT22;51654;51.452;6.644;2022-08-02T20:55:08;23.20;49.10
65064;DHT22;51654;51.452;6.644;2022-08-02T20:57:43;23.20;49.40
65064;DHT22;51654;51.452;6.644;2022-08-02T21:00:26;23.00;49.70
65064;DHT22;51654;51.452;6.644;2022-08-02T21:02:54;23.00;50.10
65064;DHT22;51654;51.452;6.644;2022-08-02T21:05:21;22.90;50.20
65064;DHT22;51654;51.452;6.644;2022-08-02T21:08:09;22.80;50.40
65064;DHT22;51654;51.452;6.644;2022-08-02T21:10:41;22.70;50.60
65064;DHT22;51654;51.452;6.644;2022-08-02T21:13:15;22.60;50.80
65064;DHT22;51654;51.452;6.644;2022-08-02T21:15:49;22.50;51.00